Time;durP1;ratioP1;P1;durP2;ratioP2;P2;SDS_P1;SDS_P2;PMS_P1;PMS_P2;Temp;Humidity;BMP_temperature;BMP_pressure;BME280_temperature;BME280_humidity;BME280_pressure;Samples;Min_cycle;Max_cycle;Signal;HPM_P1;HPM_P2
2023/08/09 00:00:41;;;;;;;1.50;1.00;;;;;;;16.95;100.00;100697.81;4999010;28;20045;-76
2023/08/09 00:03:07;;;;;;;1.60;1.17;;;;;;;17.59;100.00;100793.63;5007707;28;20040;-78
2023/08/09 00:05:32;;;;;;;1.45;0.90;;;;;;;17.69;100.00;100812.88;5007498;28;20029;-76
2023/08/09 00:07:58;;;;;;;1.92;1.13;;;;;;;17.62;100.00;100813.91;5003525;28;20046;-76
2023/08/09 00:10:23;;;;;;;2.00;1.10;;;;;;;17.49;100.00;100802.72;5006947;28;20045;-76
2023/08/09 00:12:49;;;;;;;1.73;0.85;;;;;;;17.11;100.00;100714.25;5006200;28;20412;-75
2023/08/09 00:15:15;;;;;;;2.60;1.50;;;;;;;17.61;100.00;100806.88;5006963;28;20462;-77
2023/08/09 00:17:40;;;;;;;15.85;0.88;;;;;;;17.52;100.00;100794.69;5000472;28;20041;-76
2023/08/09 00:20:08;;;;;;;2.80;0.77;;;;;;;16.60;100.00;100679.94;5006946;28;20137;-76
2023/08/09 00:22:34;;;;;;;3.55;1.42;;;;;;;16.82;100.00;100697.19;5006631;28;20402;-78
2023/08/09 00:25:00;;;;;;;2.40;1.08;;;;;;;16.98;100.00;100718.09;5007175;28;20042;-76
2023/08/09 00:27:27;;;;;;;1.48;0.93;;;;;;;17.19;100.00;100804.25;4996774;28;20131;-75
2023/08/09 00:29:52;;;;;;;1.52;0.47;;;;;;;16.56;100.00;100724.19;5007023;28;20030;-76
2023/08/09 00:32:18;;;;;;;1.27;0.68;;;;;;;17.14;100.00;100808.75;5007598;28;20734;-79
2023/08/09 00:34:43;;;;;;;4.05;1.20;;;;;;;16.97;100.00;100745.47;4996107;28;20491;-76
2023/08/09 00:37:09;;;;;;;1.63;0.57;;;;;;;16.94;100.00;100727.88;5006923;28;20038;-76
2023/08/09 00:39:34;;;;;;;1.65;0.85;;;;;;;17.35;100.00;100788.88;5000887;28;20076;-77
2023/08/09 00:42:00;;;;;;;0.90;0.60;;;;;;;16.90;100.00;100720.88;5007706;28;20485;-76
2023/08/09 00:44:25;;;;;;;5.45;2.22;;;;;;;17.03;100.00;100748.88;4999849;28;20062;-75
2023/08/09 00:46:51;;;;;;;6.50;0.77;;;;;;;17.48;100.00;100824.84;5005471;28;20052;-76
2023/08/09 00:49:17;;;;;;;5.57;1.30;;;;;;;16.77;100.00;100699.03;5000415;28;20044;-75
2023/08/09 00:51:43;;;;;;;0.80;0.50;;;;;;;16.75;100.00;100706.16;5006102;28;20126;-76
2023/08/09 00:54:09;;;;;;;1.50;0.50;;;;;;;16.92;100.00;100740.28;5000411;28;20045;-77
2023/08/09 00:56:35;;;;;;;1.95;0.85;;;;;;;17.25;100.00;100815.59;5006936;28;20037;-77
2023/08/09 00:59:01;;;;;;;2.65;1.83;;;;;;;17.37;100.00;100822.44;5006761;28;20038;-75
2023/08/09 01:01:27;;;;;;;4.13;1.35;;;;;;;16.96;100.00;100757.00;5003000;28;20057;-77
2023/08/09 01:03:53;;;;;;;2.42;0.80;;;;;;;17.24;100.00;100829.75;5000868;28;20042;-77
2023/08/09 01:06:41;;;;;;;0.60;0.38;;;;;;;17.38;100.00;100821.53;5005954;28;20054;-77
2023/08/09 01:09:22;;;;;;;2.53;1.00;;;;;;;17.43;100.00;100822.28;4993931;28;20344;-78
2023/08/09 01:11:59;;;;;;;4.70;1.45;;;;;;;16.66;100.00;100722.22;4998562;28;20026;-78
2023/08/09 01:14:28;;;;;;;1.48;0.68;;;;;;;16.96;100.00;100792.34;5037948;28;20052;-76
2023/08/09 01:16:55;;;;;;;2.30;2.10;;;;;;;17.03;100.00;100815.16;5004335;28;20101;-77
2023/08/09 01:19:37;;;;;;;1.15;0.70;;;;;;;17.12;100.00;100827.38;5003879;28;20168;-76
2023/08/09 01:22:16;;;;;;;0.75;0.50;;;;;;;17.09;100.00;100828.31;4995791;28;20280;-76
2023/08/09 01:24:44;;;;;;;2.45;1.17;;;;;;;16.70;100.00;100750.41;5005231;28;20038;-76
2023/08/09 01:27:09;;;;;;;2.70;0.40;;;;;;;16.63;100.00;100724.97;5005835;28;20075;-77
2023/08/09 01:29:36;;;;;;;0.55;0.40;;;;;;;16.17;100.00;100733.75;5004386;28;20116;-76
2023/08/09 01:32:01;;;;;;;1.05;0.60;;;;;;;16.12;100.00;100740.91;5006135;28;20030;-73
2023/08/09 01:34:27;;;;;;;0.90;0.77;;;;;;;16.02;100.00;100742.84;5005737;28;20049;-76
2023/08/09 01:36:56;;;;;;;1.40;1.05;;;;;;;16.64;100.00;100836.19;4992982;28;20133;-76
2023/08/09 01:39:25;;;;;;;0.63;0.40;;;;;;;16.48;100.00;100768.50;4998718;28;20038;-76
2023/08/09 01:41:51;;;;;;;1.83;1.27;;;;;;;16.78;100.00;100811.22;5005221;28;20036;-76
2023/08/09 01:44:17;;;;;;;2.50;1.15;;;;;;;16.19;100.00;100718.72;5004902;28;20042;-77
2023/08/09 01:46:44;;;;;;;3.03;0.52;;;;;;;16.39;100.00;100755.44;5001773;28;20042;-79
2023/08/09 01:49:14;;;;;;;0.52;0.30;;;;;;;16.76;100.00;100827.13;5002545;28;20124;-78
2023/08/09 01:51:40;;;;;;;6.85;0.57;;;;;;;16.51;100.00;100849.72;5002525;28;20050;-77
2023/08/09 01:54:07;;;;;;;0.68;0.50;;;;;;;16.38;100.00;100781.03;5006171;28;20125;-77
2023/08/09 01:56:34;;;;;;;2.05;0.75;;;;;;;15.84;100.00;100706.97;4997562;28;20034;-75
2023/08/09 01:58:59;;;;;;;0.80;0.57;;;;;;;15.89;100.00;100736.00;5009205;28;20071;-75
2023/08/09 02:01:26;;;;;;;2.70;0.73;;;;;;;16.61;100.00;100824.78;5009234;28;20175;-78
2023/08/09 02:03:51;;;;;;;0.63;0.43;;;;;;;16.81;100.00;100845.63;5009260;28;20132;-76
2023/08/09 02:06:17;;;;;;;3.35;1.23;;;;;;;16.68;100.00;100816.69;5006866;28;20152;-77
2023/08/09 02:08:43;;;;;;;2.90;1.17;;;;;;;16.63;100.00;100836.25;5008714;28;20165;-79
2023/08/09 02:11:09;;;;;;;1.48;0.70;;;;;;;16.10;100.00;100742.72;5007324;28;20065;-75
2023/08/09 02:13:34;;;;;;;0.90;0.60;;;;;;;16.54;100.00;100834.63;5003154;28;20121;-75
2023/08/09 02:16:03;;;;;;;1.35;0.88;;;;;;;16.42;100.00;100811.00;5005708;28;20505;-76
2023/08/09 02:18:29;;;;;;;1.35;0.85;;;;;;;16.62;100.00;100845.06;5009140;28;20053;-76
2023/08/09 02:20:54;;;;;;;1.17;0.70;;;;;;;15.96;100.00;100749.09;5008086;28;20076;-76
2023/08/09 02:23:20;;;;;;;0.80;0.70;;;;;;;15.96;100.00;100750.88;5008604;28;20030;-77
2023/08/09 02:25:46;;;;;;;3.28;0.73;;;;;;;16.45;100.00;100853.31;5008917;28;20488;-75
2023/08/09 02:28:12;;;;;;;2.70;0.93;;;;;;;16.60;100.00;100854.81;5009204;28;20045;-76
2023/08/09 02:30:38;;;;;;;1.92;0.95;;;;;;;16.17;100.00;100782.28;5008650;28;20049;-75
2023/08/09 02:33:03;;;;;;;1.13;0.50;;;;;;;16.53;100.00;100850.53;5006019;28;20026;-75
2023/08/09 02:35:46;;;;;;;4.10;0.95;;;;;;;15.94;100.00;100750.91;5009453;28;20030;-75
2023/08/09 02:38:11;;;;;;;1.45;0.65;;;;;;;16.52;100.00;100848.78;5002613;28;20054;-76
2023/08/09 02:40:38;;;;;;;1.60;0.52;;;;;;;16.39;100.00;100835.78;5003990;28;20046;-76
2023/08/09 02:43:04;;;;;;;1.08;0.60;;;;;;;16.31;100.00;100869.44;5006133;28;20050;-75
2023/08/09 02:45:29;;;;;;;0.68;0.43;;;;;;;16.51;100.00;100865.59;5008370;28;20087;-75
2023/08/09 02:47:54;;;;;;;1.15;0.68;;;;;;;16.54;100.00;100874.34;5001335;28;20046;-76
2023/08/09 02:50:20;;;;;;;1.88;0.60;;;;;;;16.54;100.00;100868.19;4997278;28;20034;-77
2023/08/09 02:52:45;;;;;;;2.35;1.08;;;;;;;15.79;100.00;100753.81;5001632;28;20588;-76
2023/08/09 02:55:13;;;;;;;11.90;0.68;;;;;;;16.23;100.00;100844.88;5008572;28;20058;-76
2023/08/09 02:57:38;;;;;;;1.58;1.10;;;;;;;16.30;100.00;100851.81;5007259;28;20049;-75
2023/08/09 03:00:06;;;;;;;2.70;0.45;;;;;;;16.21;100.00;100844.88;4999303;28;20025;-76
2023/08/09 03:02:31;;;;;;;1.88;0.50;;;;;;;15.77;100.00;100758.25;5008510;28;20180;-78
2023/08/09 03:04:59;;;;;;;0.95;0.65;;;;;;;16.08;100.00;100822.16;5008284;28;20441;-75
2023/08/09 03:07:25;;;;;;;3.58;1.02;;;;;;;16.31;100.00;100871.22;5004744;28;20106;-75
2023/08/09 03:09:51;;;;;;;0.77;0.68;;;;;;;15.76;100.00;100793.56;5006291;28;20593;-78
2023/08/09 03:12:16;;;;;;;1.70;0.70;;;;;;;15.47;100.00;100741.03;5007305;28;20050;-75
2023/08/09 03:14:41;;;;;;;1.95;0.88;;;;;;;15.68;100.00;100785.69;5008394;28;20458;-78
2023/08/09 03:17:07;;;;;;;1.20;0.70;;;;;;;15.79;100.00;100860.53;4998412;28;20061;-77
2023/08/09 03:19:32;;;;;;;1.67;0.57;;;;;;;15.79;100.00;100881.69;5004681;28;20691;-76
2023/08/09 03:21:58;;;;;;;1.77;1.63;;;;;;;15.99;100.00;100877.88;5008167;28;20501;-76
2023/08/09 03:24:24;;;;;;;0.75;0.57;;;;;;;16.07;100.00;100876.00;5007703;28;20038;-77
2023/08/09 03:26:49;;;;;;;0.75;0.65;;;;;;;16.06;100.00;100884.88;5007047;28;20053;-78
2023/08/09 03:29:15;;;;;;;13.75;1.27;;;;;;;15.98;100.00;100866.41;5008034;28;20057;-76
2023/08/09 03:31:41;;;;;;;1.40;0.70;;;;;;;16.04;100.00;100890.16;5007657;28;20042;-76
2023/08/09 03:34:07;;;;;;;1.98;0.85;;;;;;;15.95;100.00;100863.84;5007403;28;20065;-77
2023/08/09 03:36:32;;;;;;;0.88;0.57;;;;;;;15.93;100.00;100875.34;5001831;28;20084;-77
2023/08/09 03:38:58;;;;;;;3.35;0.85;;;;;;;15.40;100.00;100777.28;5005748;28;20545;-76
2023/08/09 03:41:25;;;;;;;1.50;0.90;;;;;;;15.17;100.00;100759.97;5001496;28;20032;-74
2023/08/09 03:43:50;;;;;;;0.98;0.60;;;;;;;15.95;100.00;100870.91;5003426;28;20359;-75
2023/08/09 03:46:16;;;;;;;0.68;0.40;;;;;;;16.06;100.00;100887.50;5007881;28;20042;-76
2023/08/09 03:48:41;;;;;;;1.08;0.50;;;;;;;16.04;100.00;100878.72;5001443;28;20112;-77
2023/08/09 03:51:07;;;;;;;0.93;0.45;;;;;;;15.52;100.00;100789.44;5004575;28;20159;-78
2023/08/09 03:53:32;;;;;;;1.38;0.40;;;;;;;15.50;100.00;100807.09;4999434;28;20045;-76
2023/08/09 03:55:57;;;;;;;0.40;0.30;;;;;;;15.11;100.00;100723.03;5008939;28;20034;-75
2023/08/09 03:58:23;;;;;;;1.17;0.68;;;;;;;15.94;100.00;100845.31;5006911;28;20042;-77
2023/08/09 04:00:48;;;;;;;1.38;0.50;;;;;;;16.02;100.00;100885.78;5005545;28;20042;-75
2023/08/09 04:03:14;;;;;;;0.90;0.60;;;;;;;15.81;100.00;100890.50;4996591;28;20540;-76
2023/08/09 04:05:39;;;;;;;4.38;1.10;;;;;;;14.84;100.00;100782.38;4996376;28;20073;-75
2023/08/09 04:08:06;;;;;;;1.67;0.85;;;;;;;14.96;100.00;100789.28;4999343;28;20133;-76
2023/08/09 04:10:32;;;;;;;1.67;0.77;;;;;;;14.78;100.00;100796.56;5002957;28;20479;-76
2023/08/09 04:12:58;;;;;;;0.38;0.35;;;;;;;15.15;100.00;100808.47;5005954;28;20061;-76
2023/08/09 04:15:23;;;;;;;2.17;1.35;;;;;;;14.84;100.00;100766.53;5006579;28;20112;-77
2023/08/09 04:17:49;;;;;;;1.55;0.77;;;;;;;15.92;100.00;100902.69;5006760;28;20030;-75
2023/08/09 04:20:16;;;;;;;0.68;0.65;;;;;;;15.81;100.00;100882.56;4997479;28;20497;-76
2023/08/09 04:22:41;;;;;;;1.15;0.60;;;;;;;15.76;100.00;100910.84;5006633;28;20029;-76
2023/08/09 04:25:10;;;;;;;2.25;1.50;;;;;;;15.71;100.00;100910.03;4989077;28;20041;-77
2023/08/09 04:27:36;;;;;;;1.95;0.95;;;;;;;14.83;100.00;100729.59;5006298;28;20076;-77
2023/08/09 04:30:04;;;;;;;4.63;0.88;;;;;;;15.58;100.00;100818.47;5004362;28;20037;-75
2023/08/09 04:32:32;;;;;;;1.15;0.80;;;;;;;15.95;100.00;100887.66;5006601;28;20057;-77
2023/08/09 04:34:57;;;;;;;0.93;0.57;;;;;;;15.28;100.00;100806.53;5005296;28;20058;-77
2023/08/09 04:37:23;;;;;;;4.47;1.13;;;;;;;15.30;100.00;100780.97;5003419;28;20051;-75
2023/08/09 04:39:49;;;;;;;0.52;0.35;;;;;;;15.40;100.00;100780.81;5001826;28;20044;-77
2023/08/09 04:42:14;;;;;;;1.10;0.68;;;;;;;15.91;100.00;100858.59;5005979;28;20041;-75
2023/08/09 04:44:40;;;;;;;1.20;0.50;;;;;;;16.01;100.00;100899.91;5005560;28;20022;-76
2023/08/09 04:47:05;;;;;;;1.48;0.50;;;;;;;15.67;100.00;100839.50;5001777;28;20439;-77
2023/08/09 04:49:31;;;;;;;1.25;0.50;;;;;;;16.22;100.00;100882.81;5005565;28;20493;-74
2023/08/09 04:51:56;;;;;;;0.73;0.47;;;;;;;16.34;100.00;100913.53;5002559;28;20073;-78
2023/08/09 04:54:22;;;;;;;1.00;0.50;;;;;;;16.30;100.00;100911.84;5006097;28;20041;-77
2023/08/09 04:56:48;;;;;;;0.73;0.60;;;;;;;16.37;100.00;100917.03;4997335;28;20026;-77
2023/08/09 04:59:13;;;;;;;1.33;0.60;;;;;;;16.48;100.00;100921.25;5005896;28;20792;-76
2023/08/09 05:01:39;;;;;;;0.98;0.75;;;;;;;16.36;100.00;100879.97;5005602;28;20053;-76
2023/08/09 05:04:04;;;;;;;2.67;0.77;;;;;;;16.14;100.00;100807.97;5006000;28;20486;-76
2023/08/09 05:06:30;;;;;;;0.73;0.47;;;;;;;16.62;100.00;100893.66;5003297;28;20462;-76
2023/08/09 05:08:56;;;;;;;0.98;0.40;;;;;;;16.81;100.00;100919.84;4997723;28;20017;-77
2023/08/09 05:11:22;;;;;;;0.88;0.60;;;;;;;16.30;100.00;100812.09;5005907;28;20033;-78
2023/08/09 05:13:47;;;;;;;1.33;0.50;;;;;;;16.62;100.00;100834.47;5030959;28;20046;-77
2023/08/09 05:16:12;;;;;;;2.28;0.60;;;;;;;17.12;100.00;100895.44;5004421;28;20073;-77
2023/08/09 05:18:38;;;;;;;2.53;0.45;;;;;;;17.12;100.00;100887.50;5005706;28;20065;-76
2023/08/09 05:21:04;;;;;;;0.45;0.45;;;;;;;17.43;100.00;100901.00;5005782;28;20445;-76
2023/08/09 05:23:29;;;;;;;0.70;0.47;;;;;;;17.55;100.00;100860.06;4997799;28;20030;-76
2023/08/09 05:25:54;;;;;;;1.27;0.75;;;;;;;17.91;100.00;100848.69;5005747;28;20049;-77
2023/08/09 05:28:20;;;;;;;1.17;0.50;;;;;;;19.00;100.00;100908.88;5005578;28;20454;-76
2023/08/09 05:30:47;;;;;;;0.85;0.50;;;;;;;19.68;100.00;100946.91;5005224;28;20501;-75
2023/08/09 05:33:12;;;;;;;1.40;1.00;;;;;;;19.58;100.00;100811.41;5004398;28;20034;-77
2023/08/09 05:35:37;;;;;;;5.35;1.58;;;;;;;20.51;100.00;100838.63;5009798;28;20072;-75
2023/08/09 05:38:03;;;;;;;1.58;0.73;;;;;;;20.75;100.00;100865.38;5005898;28;20054;-75
2023/08/09 05:40:28;;;;;;;1.73;0.85;;;;;;;21.44;100.00;100927.84;5006205;28;20042;-77
2023/08/09 05:42:55;;;;;;;0.43;0.40;;;;;;;20.20;100.00;100636.25;5004764;28;20034;-75
2023/08/09 05:45:21;;;;;;;2.38;1.30;;;;;;;22.38;100.00;100854.72;5009508;28;20042;-76
2023/08/09 05:47:46;;;;;;;0.80;0.50;;;;;;;22.43;100.00;100850.06;5009280;28;20557;-76
2023/08/09 05:50:12;;;;;;;0.75;0.47;;;;;;;23.31;100.00;100948.84;5005808;28;20038;-75
2023/08/09 05:52:37;;;;;;;2.58;0.65;;;;;;;23.06;98.17;100921.41;5008997;28;20378;-74
2023/08/09 05:55:03;;;;;;;22.42;1.20;;;;;;;23.84;90.34;100922.41;5008084;28;20208;-76
2023/08/09 05:57:29;;;;;;;2.95;0.63;;;;;;;23.23;91.11;100900.13;5005235;28;20041;-78
2023/08/09 05:59:54;;;;;;;1.20;0.50;;;;;;;23.65;84.36;100872.31;4999668;28;20648;-75
2023/08/09 06:02:20;;;;;;;1.38;1.25;;;;;;;24.13;83.39;100913.81;5009120;28;20071;-76
2023/08/09 06:04:45;;;;;;;0.30;0.30;;;;;;;24.25;74.16;100947.22;5008635;28;20049;-77
2023/08/09 06:07:11;;;;;;;0.28;0.20;;;;;;;24.54;73.01;100910.94;5008244;28;20046;-77
2023/08/09 06:09:38;;;;;;;2.45;2.25;;;;;;;24.79;71.28;100885.53;5004136;28;20034;-77
2023/08/09 06:12:04;;;;;;;1.17;0.60;;;;;;;24.77;68.39;100876.69;5008704;28;20053;-76
2023/08/09 06:14:30;;;;;;;2.55;0.70;;;;;;;24.85;64.99;100853.00;5008992;28;20038;-77
2023/08/09 06:16:56;;;;;;;0.70;0.30;;;;;;;25.38;64.27;100935.28;5005615;28;20045;-74
2023/08/09 06:19:22;;;;;;;4.95;0.98;;;;;;;24.84;64.96;100837.81;5006908;28;20042;-76
2023/08/09 06:21:47;;;;;;;6.18;0.98;;;;;;;24.74;66.59;100882.22;5040273;28;20042;-77
2023/08/09 06:24:13;;;;;;;0.75;0.45;;;;;;;24.01;68.45;100930.50;5008380;28;20038;-78
2023/08/09 06:26:38;;;;;;;0.43;0.20;;;;;;;24.42;69.66;100868.59;5007474;28;20041;-76
2023/08/09 06:29:04;;;;;;;0.52;0.30;;;;;;;24.42;66.01;100923.13;5007469;28;20045;-76
2023/08/09 06:31:29;;;;;;;0.88;0.40;;;;;;;24.88;65.40;100893.09;5007765;28;20434;-77
2023/08/09 06:33:55;;;;;;;1.25;0.47;;;;;;;25.44;62.99;100926.88;5007899;28;20082;-76
2023/08/09 06:36:21;;;;;;;0.45;0.35;;;;;;;24.89;61.91;100864.44;4994315;28;20050;-76
2023/08/09 06:38:46;;;;;;;0.40;0.35;;;;;;;24.23;62.75;100914.22;5006951;28;20807;-76
2023/08/09 06:41:12;;;;;;;0.30;0.30;;;;;;;24.43;64.21;100948.13;5008482;28;20145;-76
2023/08/09 06:43:37;;;;;;;0.30;0.30;;;;;;;24.59;66.63;100953.66;5002085;28;20038;-76
2023/08/09 06:46:03;;;;;;;0.57;0.32;;;;;;;24.62;68.10;100881.88;5004271;28;20054;-76
2023/08/09 06:48:32;;;;;;;0.50;0.28;;;;;;;24.22;66.27;100947.38;5002966;28;20069;-76
2023/08/09 06:50:59;;;;;;;0.45;0.28;;;;;;;23.87;74.45;100947.22;5004833;28;20040;-77
2023/08/09 06:53:25;;;;;;;0.70;0.30;;;;;;;24.12;69.86;100852.22;5006441;28;20333;-76
2023/08/09 06:55:51;;;;;;;0.20;0.20;;;;;;;23.52;70.60;100941.66;5008157;28;20041;-77
2023/08/09 06:58:17;;;;;;;0.38;0.20;;;;;;;22.50;77.27;100840.84;5007991;28;20049;-78
2023/08/09 07:00:45;;;;;;;3.67;0.88;;;;;;;23.14;81.10;100948.72;5008017;28;20030;-76
2023/08/09 07:03:11;;;;;;;0.50;0.30;;;;;;;24.08;74.03;100939.97;4999562;28;20049;-79
2023/08/09 07:05:36;;;;;;;0.30;0.30;;;;;;;22.76;75.46;100834.34;4999455;28;20030;-75
2023/08/09 07:08:02;;;;;;;4.55;1.08;;;;;;;23.70;75.96;100929.22;5004559;28;20038;-76
2023/08/09 07:10:27;;;;;;;3.17;0.73;;;;;;;22.27;76.83;100750.03;5003687;28;20042;-78
2023/08/09 07:12:53;;;;;;;2.13;0.93;;;;;;;23.62;80.51;100914.44;5005183;28;20041;-77
2023/08/09 07:15:19;;;;;;;0.77;0.47;;;;;;;23.88;80.00;100937.38;5007227;28;20034;-75
2023/08/09 07:17:46;;;;;;;0.32;0.22;;;;;;;23.66;77.24;100913.38;5008123;28;20685;-78
2023/08/09 07:20:14;;;;;;;2.67;0.82;;;;;;;22.91;77.34;100837.28;4999373;28;20532;-76
2023/08/09 07:22:44;;;;;;;0.95;0.43;;;;;;;23.10;79.78;100832.88;5005777;28;20041;-74
2023/08/09 07:25:11;;;;;;;0.30;0.30;;;;;;;23.05;78.75;100828.66;5007588;28;20037;-76
2023/08/09 07:27:42;;;;;;;0.88;0.57;;;;;;;23.56;81.20;100916.47;5006932;28;20041;-77
2023/08/09 07:30:09;;;;;;;3.03;0.50;;;;;;;23.68;76.96;100925.75;5004677;28;20030;-76
2023/08/09 07:32:38;;;;;;;0.47;0.30;;;;;;;22.74;78.38;100795.22;5007352;28;20079;-76
2023/08/09 07:35:05;;;;;;;0.73;0.40;;;;;;;23.18;77.19;100865.53;5006977;28;20536;-76
2023/08/09 07:37:30;;;;;;;0.68;0.60;;;;;;;23.54;78.81;100901.41;5003486;28;20538;-76
2023/08/09 07:39:56;;;;;;;0.93;0.40;;;;;;;23.85;80.17;100924.13;5005483;28;20044;-76
2023/08/09 07:42:21;;;;;;;0.30;0.28;;;;;;;22.45;76.49;100828.56;5002910;28;20045;-76
2023/08/09 07:44:47;;;;;;;0.63;0.17;;;;;;;22.83;81.14;100922.38;5007975;28;20022;-77
2023/08/09 07:47:12;;;;;;;0.17;0.17;;;;;;;23.29;81.27;100915.91;5004570;28;20045;-76
2023/08/09 07:49:37;;;;;;;0.77;0.40;;;;;;;23.38;79.63;100918.16;5007137;28;20669;-77
2023/08/09 07:52:03;;;;;;;0.43;0.30;;;;;;;22.90;76.72;100806.13;5004366;28;20410;-77
2023/08/09 07:54:29;;;;;;;0.98;0.93;;;;;;;23.48;76.84;100902.53;5006395;28;20072;-77
2023/08/09 07:56:55;;;;;;;0.10;0.10;;;;;;;23.57;77.47;100888.72;4999910;28;20229;-76
2023/08/09 07:59:20;;;;;;;0.88;0.55;;;;;;;23.12;78.42;100902.41;5007313;28;20152;-77
2023/08/09 08:01:46;;;;;;;1.05;0.73;;;;;;;23.28;75.92;100881.19;5006217;28;20034;-76
2023/08/09 08:04:11;;;;;;;3.28;0.30;;;;;;;23.57;75.30;100871.78;5005437;28;20210;-76
2023/08/09 08:06:38;;;;;;;0.50;0.28;;;;;;;23.45;74.07;100886.63;5002666;28;20030;-77
2023/08/09 08:09:04;;;;;;;2.63;0.93;;;;;;;23.20;76.26;100816.38;5002180;28;20034;-77
2023/08/09 08:11:30;;;;;;;0.30;0.30;;;;;;;23.79;74.45;100899.34;5006996;28;20022;-76
2023/08/09 08:13:55;;;;;;;0.20;0.20;;;;;;;23.22;72.31;100799.31;5001398;28;20057;-75
2023/08/09 08:16:21;;;;;;;0.20;0.20;;;;;;;23.06;72.34;100800.94;5004838;28;20080;-75
2023/08/09 08:18:46;;;;;;;1.33;0.77;;;;;;;23.78;71.58;100870.81;5005134;28;20030;-78
2023/08/09 08:21:12;;;;;;;0.40;0.30;;;;;;;23.41;71.44;100818.06;5006229;28;20474;-76
2023/08/09 08:23:37;;;;;;;0.25;0.20;;;;;;;23.63;71.50;100900.97;4999627;28;20022;-76
2023/08/09 08:26:03;;;;;;;0.57;0.38;;;;;;;23.79;72.25;100871.69;5006095;28;20100;-77
2023/08/09 08:28:30;;;;;;;0.82;0.38;;;;;;;23.84;71.77;100804.47;5005629;28;20627;-77
2023/08/09 08:30:55;;;;;;;0.35;0.32;;;;;;;24.24;70.60;100865.03;5005000;28;20108;-75
2023/08/09 08:33:21;;;;;;;0.50;0.50;;;;;;;24.56;67.97;100874.19;5002446;28;20478;-76
2023/08/09 08:35:48;;;;;;;1.02;0.50;;;;;;;23.96;66.92;100769.88;5006269;28;20030;-76
2023/08/09 08:38:15;;;;;;;0.30;0.20;;;;;;;24.48;62.57;100852.22;5004487;28;20108;-77
2023/08/09 08:40:42;;;;;;;0.30;0.30;;;;;;;24.87;62.95;100872.59;5001141;28;20041;-75
2023/08/09 08:43:08;;;;;;;1.08;0.85;;;;;;;25.06;62.49;100876.03;4999260;28;20068;-78
2023/08/09 08:45:38;;;;;;;1.02;0.60;;;;;;;24.38;61.21;100802.63;5005885;28;20034;-77
2023/08/09 08:48:08;;;;;;;0.43;0.30;;;;;;;24.79;60.84;100781.69;5005457;28;20024;-75
2023/08/09 08:50:40;;;;;;;0.30;0.25;;;;;;;25.64;59.74;100826.34;5030309;28;20123;-78
2023/08/09 08:53:06;;;;;;;1.88;0.28;;;;;;;24.27;59.98;100776.34;4997541;28;20043;-76
2023/08/09 08:55:32;;;;;;;1.05;0.40;;;;;;;25.30;57.41;100853.34;5005234;28;20524;-75
2023/08/09 08:57:58;;;;;;;0.20;0.20;;;;;;;25.25;55.63;100776.56;5005750;28;20092;-77
2023/08/09 09:00:24;;;;;;;0.88;0.40;;;;;;;25.01;55.69;100810.97;4999231;28;20496;-76
2023/08/09 09:02:49;;;;;;;0.90;0.60;;;;;;;25.13;55.06;100760.22;5005983;28;20026;-77
2023/08/09 09:05:16;;;;;;;0.20;0.20;;;;;;;24.93;58.24;100841.84;5006005;28;20030;-77
2023/08/09 09:07:45;;;;;;;0.40;0.30;;;;;;;24.79;57.89;100847.94;4992374;28;20042;-77
2023/08/09 09:10:12;;;;;;;0.65;0.65;;;;;;;25.73;58.05;100819.59;5005857;28;20046;-76
2023/08/09 09:12:38;;;;;;;0.30;0.30;;;;;;;25.30;56.31;100832.72;5036751;28;20533;-75
2023/08/09 09:15:06;;;;;;;0.50;0.40;;;;;;;25.30;55.58;100760.19;5005602;28;20180;-75
2023/08/09 09:17:38;;;;;;;0.38;0.30;;;;;;;26.82;55.42;100850.03;4997046;28;20021;-76
2023/08/09 09:20:13;;;;;;;3.63;0.50;;;;;;;24.41;56.86;100835.53;5005354;28;20490;-75
2023/08/09 09:22:39;;;;;;;0.80;0.43;;;;;;;24.06;59.09;100756.00;5004306;28;20108;-75
2023/08/09 09:25:10;;;;;;;1.05;0.55;;;;;;;24.03;58.74;100794.56;5005593;28;20045;-75
2023/08/09 09:27:36;;;;;;;1.05;0.85;;;;;;;23.10;63.24;100738.31;5002751;28;20059;-76
2023/08/09 09:30:13;;;;;;;0.30;0.20;;;;;;;24.25;63.31;100842.63;5037194;28;20026;-75
2023/08/09 09:33:00;;;;;;;1.25;0.30;;;;;;;25.61;57.82;100844.44;4998037;28;20355;-75
2023/08/09 09:35:31;;;;;;;0.85;0.28;;;;;;;25.79;56.00;100818.34;5003557;28;20426;-76
2023/08/09 09:37:59;;;;;;;0.47;0.32;;;;;;;26.42;54.84;100834.41;5003489;28;20054;-76
2023/08/09 09:40:28;;;;;;;1.48;0.82;;;;;;;27.09;51.45;100783.69;5005119;28;20108;-75
2023/08/09 09:42:55;;;;;;;0.60;0.30;;;;;;;25.43;53.65;100814.13;5001775;28;20045;-76
2023/08/09 09:45:25;;;;;;;2.22;0.70;;;;;;;25.34;56.56;100836.13;4996735;28;20033;-77
2023/08/09 09:47:53;;;;;;;0.45;0.20;;;;;;;25.11;57.30;100840.88;5005451;28;20041;-78
2023/08/09 09:50:22;;;;;;;0.25;0.20;;;;;;;25.41;56.50;100818.69;5003118;28;20390;-77
2023/08/09 09:52:48;;;;;;;0.20;0.20;;;;;;;25.36;53.84;100757.16;5005570;28;20049;-76
2023/08/09 09:55:19;;;;;;;0.32;0.20;;;;;;;26.72;53.91;100829.03;5005596;28;20061;-75
2023/08/09 09:57:45;;;;;;;0.55;0.30;;;;;;;27.44;52.31;100796.75;5005715;28;20046;-79
2023/08/09 10:00:11;;;;;;;0.43;0.30;;;;;;;28.31;48.98;100810.84;5005566;28;20041;-76
2023/08/09 10:02:49;;;;;;;0.73;0.20;;;;;;;27.39;49.89;100827.66;5000481;28;20034;-75
2023/08/09 10:05:35;;;;;;;0.75;0.47;;;;;;;27.09;47.80;100804.34;4993375;28;20034;-76
2023/08/09 10:08:05;;;;;;;0.52;0.40;;;;;;;28.14;47.45;100799.38;5002816;28;20125;-76
2023/08/09 10:10:32;;;;;;;0.55;0.30;;;;;;;26.87;48.51;100724.03;5001591;28;20186;-76
2023/08/09 10:13:01;;;;;;;0.98;0.68;;;;;;;27.06;49.50;100745.28;5003176;28;20069;-76
2023/08/09 10:15:35;;;;;;;0.70;0.65;;;;;;;25.85;50.53;100722.09;5004597;28;20038;-76
2023/08/09 10:18:16;;;;;;;0.25;0.20;;;;;;;27.87;48.07;100791.28;5004127;28;20049;-76
2023/08/09 10:20:46;;;;;;;0.20;0.20;;;;;;;27.17;47.16;100678.97;4998963;28;20148;-74
2023/08/09 10:23:22;;;;;;;0.77;0.50;;;;;;;26.97;48.09;100744.03;5009211;28;20044;-78
2023/08/09 10:25:50;;;;;;;1.38;0.90;;;;;;;26.07;49.71;100783.56;5007220;28;20044;-77
2023/08/09 10:28:17;;;;;;;2.00;0.50;;;;;;;25.08;52.28;100725.56;5006900;28;20064;-76
2023/08/09 10:30:51;;;;;;;0.60;0.30;;;;;;;25.12;53.42;100806.81;5008131;28;20072;-76
2023/08/09 10:33:21;;;;;;;2.28;2.10;;;;;;;24.64;53.08;100689.47;5007701;28;20045;-78
2023/08/09 10:35:52;;;;;;;0.20;0.20;;;;;;;25.47;53.37;100792.34;5008233;28;20497;-78
2023/08/09 10:38:41;;;;;;;1.15;0.40;;;;;;;26.98;49.95;100788.88;5003784;28;20046;-76
2023/08/09 10:41:09;;;;;;;1.08;0.30;;;;;;;27.40;48.88;100684.72;5013844;28;20893;-76
2023/08/09 10:43:35;;;;;;;0.60;0.38;;;;;;;27.84;46.26;100785.19;5006762;28;20030;-76
2023/08/09 10:46:18;;;;;;;0.65;0.40;;;;;;;27.11;48.17;100695.53;5008098;28;20042;-77
2023/08/09 10:48:54;;;;;;;0.38;0.35;;;;;;;26.72;47.97;100696.25;5006137;28;20041;-76
2023/08/09 10:51:21;;;;;;;0.68;0.55;;;;;;;27.85;48.62;100782.41;5005592;28;20099;-76
2023/08/09 10:53:51;;;;;;;0.20;0.20;;;;;;;27.10;47.42;100704.56;5006145;28;20135;-78
2023/08/09 10:56:46;;;;;;;0.50;0.30;;;;;;;28.10;46.46;100778.94;4999501;28;20443;-75
2023/08/09 10:59:21;;;;;;;0.13;0.13;;;;;;;28.27;45.35;100750.78;5004920;28;20049;-76
2023/08/09 11:01:47;;;;;;;11.82;2.08;;;;;;;28.47;43.80;100749.47;5007924;28;20103;-76
2023/08/09 11:04:14;;;;;;;2.85;0.70;;;;;;;28.09;43.22;100765.53;5007075;28;20127;-78
2023/08/09 11:06:42;;;;;;;0.80;0.50;;;;;;;27.60;45.05;100769.66;5007455;28;20176;-76
2023/08/09 11:09:08;;;;;;;0.30;0.30;;;;;;;28.56;42.97;100758.72;5004917;28;20018;-76
2023/08/09 11:11:35;;;;;;;0.70;0.35;;;;;;;28.20;43.06;100658.59;5008266;28;20527;-76
2023/08/09 11:14:02;;;;;;;1.38;0.45;;;;;;;27.16;45.57;100732.97;5000017;28;20121;-77
2023/08/09 11:16:27;;;;;;;0.88;0.50;;;;;;;26.85;45.91;100669.41;5006032;28;20061;-77
2023/08/09 11:19:09;;;;;;;0.63;0.30;;;;;;;27.51;45.64;100654.31;5002048;28;20042;-77
2023/08/09 11:21:43;;;;;;;0.45;0.30;;;;;;;27.85;45.71;100655.63;5007642;28;20485;-78